Aérodrome :
LOGIN :

S'inscrire | Disclaimer

   EN    FR    IT 

 










Légende :    VFR   VFR Marginal   IFR   IFR Intensif   IFR Très Intensif
Visi : 
Plafond : 
>= 8 km
>= 3000ft
5 à 8 km
1000 à 3000 ft
1500m à 5 km
500 à 1000 ft
800 à 1500m
200 à 500 ft
< 800m
< 200 ft
Symboles :   Orages  Brouillard  Fortes neiges  Fortes précipitations  Vent > 20 kt
SIGMETs :   Divers  Orages  Givrage  Turbulence  Onde Orograph.  Cendres Volcan.







- Altitude de l'aérodrome : 287 ft
- Voir les cartes d'approche


LFRL - Lanveoc Poulmic

DERNIER METAR :
  • 220800Z AUTO 16010KT 130V190 9999 FEW014 SCT019 BKN027 13/13 Q1019

METARs EXPIRÉS :
  • 220730Z AUTO 15007KT 6000 -DZ FEW013 SCT018 BKN025 13/12 Q1019
  • 220700Z AUTO 15007KT 120V190 9999 FEW018 SCT029 OVC049 13/12 Q1019
  • 220630Z AUTO 16008KT 6000 -RA BKN021 BKN026 BKN032 13/12 Q1020
  • 220600Z AUTO 14005KT 9999 -RADZ FEW025 BKN031 BKN037 13/11 Q1020

TAF TAF LFRL
Valide du 21 à 12h jusqu'au 22 à 12h UTC


211100Z 2112/2212 28012KT 9999 SCT040
TEMPO 2112/2115 28015G25KT -SHRA SCT030TCU
BECMG 2209/2211 OVC015
Pas de NOTAMs connus pour ce terrain.
1 SIGMET publié pour la FIR Brest (LFRR) :
 
Givrage fort
LFRR SIGMET 1 VALID 220630/221000 LFPW
LFRR BREST FIR/UIR SEV ICE FCST WI N4930 W00445 - N5000 W00200 - N5000 W00015 - N4845 W00015 - N4900 W00400 - N4930 W00445 FL080/200 MOV E 35KT NC=



MET'MAP, la Météo Aéronautique d'un coup d'oeil ! - Copyright ORBIFLY Décembre 2007 - Disclaimer

ORBIFLY MET'MAP TEAM :

Programmation & Développement : Alexandra Zaïnal
Conception & Développement : Baudouin d'Aumeries
Co-Programmation & Développement : Marc-Olivier Méhu
Soutien technique & logistique : Manuel Goepfert

Contact : metmap@orbifly.com




SOURCES & CREDITS :

   NOAA